sensor_id;sensor_type;location;lat;lon;timestamp;P1;durP1;ratioP1;P2;durP2;ratioP2
12976;SDS011;6553;48.412;9.514;2023-12-22T00:02:21;1.45;;;0.63;;
12976;SDS011;6553;48.412;9.514;2023-12-22T00:04:48;2.15;;;0.80;;
12976;SDS011;6553;48.412;9.514;2023-12-22T00:07:14;0.50;;;0.50;;
12976;SDS011;6553;48.412;9.514;2023-12-22T00:09:40;1.90;;;0.68;;
12976;SDS011;6553;48.412;9.514;2023-12-22T00:12:05;1.45;;;0.60;;
12976;SDS011;6553;48.412;9.514;2023-12-22T00:14:31;0.73;;;0.60;;
12976;SDS011;6553;48.412;9.514;2023-12-22T00:16:57;0.68;;;0.60;;
12976;SDS011;6553;48.412;9.514;2023-12-22T00:19:23;0.60;;;0.60;;
12976;SDS011;6553;48.412;9.514;2023-12-22T00:21:49;0.70;;;0.60;;
12976;SDS011;6553;48.412;9.514;2023-12-22T00:24:14;0.50;;;0.50;;
12976;SDS011;6553;48.412;9.514;2023-12-22T00:26:40;0.43;;;0.43;;
12976;SDS011;6553;48.412;9.514;2023-12-22T00:29:06;0.47;;;0.47;;
12976;SDS011;6553;48.412;9.514;2023-12-22T00:31:32;1.63;;;0.70;;
12976;SDS011;6553;48.412;9.514;2023-12-22T00:33:57;1.45;;;0.50;;
12976;SDS011;6553;48.412;9.514;2023-12-22T00:36:23;1.10;;;0.60;;
12976;SDS011;6553;48.412;9.514;2023-12-22T00:38:49;0.47;;;0.47;;
12976;SDS011;6553;48.412;9.514;2023-12-22T00:41:16;1.17;;;0.90;;
12976;SDS011;6553;48.412;9.514;2023-12-22T00:43:41;0.85;;;0.57;;
12976;SDS011;6553;48.412;9.514;2023-12-22T00:46:07;0.68;;;0.68;;
12976;SDS011;6553;48.412;9.514;2023-12-22T00:48:33;1.00;;;0.70;;
12976;SDS011;6553;48.412;9.514;2023-12-22T00:50:59;0.60;;;0.50;;
12976;SDS011;6553;48.412;9.514;2023-12-22T00:53:24;0.68;;;0.68;;
12976;SDS011;6553;48.412;9.514;2023-12-22T00:55:50;0.60;;;0.60;;
12976;SDS011;6553;48.412;9.514;2023-12-22T00:58:16;0.70;;;0.70;;
12976;SDS011;6553;48.412;9.514;2023-12-22T01:00:42;1.20;;;0.80;;
12976;SDS011;6553;48.412;9.514;2023-12-22T01:03:07;0.43;;;0.43;;
12976;SDS011;6553;48.412;9.514;2023-12-22T01:05:33;0.60;;;0.50;;
12976;SDS011;6553;48.412;9.514;2023-12-22T01:07:59;1.58;;;0.75;;
12976;SDS011;6553;48.412;9.514;2023-12-22T01:10:25;0.70;;;0.70;;
12976;SDS011;6553;48.412;9.514;2023-12-22T01:12:50;0.60;;;0.43;;
12976;SDS011;6553;48.412;9.514;2023-12-22T01:15:16;0.90;;;0.70;;
12976;SDS011;6553;48.412;9.514;2023-12-22T01:17:42;0.70;;;0.70;;
12976;SDS011;6553;48.412;9.514;2023-12-22T01:20:07;0.80;;;0.50;;
12976;SDS011;6553;48.412;9.514;2023-12-22T01:22:34;0.77;;;0.60;;
12976;SDS011;6553;48.412;9.514;2023-12-22T01:25:03;0.60;;;0.50;;
12976;SDS011;6553;48.412;9.514;2023-12-22T01:27:30;0.50;;;0.50;;
12976;SDS011;6553;48.412;9.514;2023-12-22T01:29:56;0.50;;;0.50;;
12976;SDS011;6553;48.412;9.514;2023-12-22T01:32:22;0.85;;;0.57;;
12976;SDS011;6553;48.412;9.514;2023-12-22T01:34:48;0.47;;;0.47;;
12976;SDS011;6553;48.412;9.514;2023-12-22T01:37:14;0.68;;;0.60;;
12976;SDS011;6553;48.412;9.514;2023-12-22T01:39:39;0.50;;;0.50;;
12976;SDS011;6553;48.412;9.514;2023-12-22T01:42:05;0.75;;;0.50;;
12976;SDS011;6553;48.412;9.514;2023-12-22T01:44:31;1.05;;;0.50;;
12976;SDS011;6553;48.412;9.514;2023-12-22T01:46:57;1.10;;;0.60;;
12976;SDS011;6553;48.412;9.514;2023-12-22T01:49:23;1.20;;;0.50;;
12976;SDS011;6553;48.412;9.514;2023-12-22T01:51:50;0.82;;;0.57;;
12976;SDS011;6553;48.412;9.514;2023-12-22T01:54:18;1.33;;;0.60;;
12976;SDS011;6553;48.412;9.514;2023-12-22T01:56:44;0.93;;;0.60;;
12976;SDS011;6553;48.412;9.514;2023-12-22T01:59:11;1.20;;;0.93;;
12976;SDS011;6553;48.412;9.514;2023-12-22T02:01:37;0.65;;;0.40;;
12976;SDS011;6553;48.412;9.514;2023-12-22T02:04:04;1.27;;;0.60;;
12976;SDS011;6553;48.412;9.514;2023-12-22T02:06:31;0.85;;;0.50;;
12976;SDS011;6553;48.412;9.514;2023-12-22T02:09:01;0.50;;;0.50;;
12976;SDS011;6553;48.412;9.514;2023-12-22T02:11:29;0.70;;;0.70;;
12976;SDS011;6553;48.412;9.514;2023-12-22T02:13:54;0.98;;;0.40;;
12976;SDS011;6553;48.412;9.514;2023-12-22T02:16:22;0.35;;;0.35;;
12976;SDS011;6553;48.412;9.514;2023-12-22T02:19:04;0.63;;;0.47;;
12976;SDS011;6553;48.412;9.514;2023-12-22T02:22:11;0.60;;;0.40;;
12976;SDS011;6553;48.412;9.514;2023-12-22T02:24:38;0.40;;;0.30;;
12976;SDS011;6553;48.412;9.514;2023-12-22T02:27:05;0.40;;;0.40;;
12976;SDS011;6553;48.412;9.514;2023-12-22T02:30:08;0.60;;;0.60;;
12976;SDS011;6553;48.412;9.514;2023-12-22T02:32:43;0.50;;;0.50;;
12976;SDS011;6553;48.412;9.514;2023-12-22T02:35:14;1.55;;;0.40;;
12976;SDS011;6553;48.412;9.514;2023-12-22T02:37:47;0.60;;;0.60;;
12976;SDS011;6553;48.412;9.514;2023-12-22T02:40:15;0.77;;;0.50;;
12976;SDS011;6553;48.412;9.514;2023-12-22T02:42:42;0.40;;;0.40;;
12976;SDS011;6553;48.412;9.514;2023-12-22T02:45:15;0.52;;;0.52;;
12976;SDS011;6553;48.412;9.514;2023-12-22T02:47:43;0.60;;;0.60;;
12976;SDS011;6553;48.412;9.514;2023-12-22T02:50:10;0.40;;;0.40;;
12976;SDS011;6553;48.412;9.514;2023-12-22T02:52:39;1.10;;;0.60;;
12976;SDS011;6553;48.412;9.514;2023-12-22T02:55:05;0.45;;;0.40;;
12976;SDS011;6553;48.412;9.514;2023-12-22T02:57:32;0.65;;;0.40;;
12976;SDS011;6553;48.412;9.514;2023-12-22T02:59:58;0.50;;;0.50;;
12976;SDS011;6553;48.412;9.514;2023-12-22T03:02:24;0.98;;;0.60;;
12976;SDS011;6553;48.412;9.514;2023-12-22T03:04:50;0.47;;;0.47;;
12976;SDS011;6553;48.412;9.514;2023-12-22T03:07:16;0.32;;;0.30;;
12976;SDS011;6553;48.412;9.514;2023-12-22T03:09:42;0.55;;;0.55;;
12976;SDS011;6553;48.412;9.514;2023-12-22T03:12:08;1.23;;;0.40;;
12976;SDS011;6553;48.412;9.514;2023-12-22T03:14:35;0.80;;;0.50;;
12976;SDS011;6553;48.412;9.514;2023-12-22T03:17:02;0.93;;;0.50;;
12976;SDS011;6553;48.412;9.514;2023-12-22T03:19:30;0.40;;;0.40;;
12976;SDS011;6553;48.412;9.514;2023-12-22T03:21:56;0.50;;;0.50;;
12976;SDS011;6553;48.412;9.514;2023-12-22T03:24:22;0.50;;;0.50;;
12976;SDS011;6553;48.412;9.514;2023-12-22T03:26:49;0.60;;;0.60;;
12976;SDS011;6553;48.412;9.514;2023-12-22T03:29:15;0.47;;;0.47;;
12976;SDS011;6553;48.412;9.514;2023-12-22T03:31:42;0.98;;;0.63;;
12976;SDS011;6553;48.412;9.514;2023-12-22T03:34:08;0.40;;;0.40;;
12976;SDS011;6553;48.412;9.514;2023-12-22T03:36:34;0.63;;;0.50;;
12976;SDS011;6553;48.412;9.514;2023-12-22T03:39:00;0.73;;;0.45;;
12976;SDS011;6553;48.412;9.514;2023-12-22T03:41:26;0.43;;;0.40;;
12976;SDS011;6553;48.412;9.514;2023-12-22T03:43:52;0.82;;;0.40;;
12976;SDS011;6553;48.412;9.514;2023-12-22T03:46:17;0.50;;;0.50;;
12976;SDS011;6553;48.412;9.514;2023-12-22T03:48:43;1.65;;;0.47;;
12976;SDS011;6553;48.412;9.514;2023-12-22T03:51:09;0.90;;;0.77;;
12976;SDS011;6553;48.412;9.514;2023-12-22T03:53:39;1.08;;;0.73;;
12976;SDS011;6553;48.412;9.514;2023-12-22T03:56:07;0.63;;;0.40;;
12976;SDS011;6553;48.412;9.514;2023-12-22T03:58:34;0.40;;;0.40;;
12976;SDS011;6553;48.412;9.514;2023-12-22T04:01:00;0.77;;;0.57;;
12976;SDS011;6553;48.412;9.514;2023-12-22T04:03:27;0.60;;;0.50;;
12976;SDS011;6553;48.412;9.514;2023-12-22T04:05:52;0.57;;;0.50;;
12976;SDS011;6553;48.412;9.514;2023-12-22T04:08:18;0.50;;;0.50;;
12976;SDS011;6553;48.412;9.514;2023-12-22T04:10:45;0.57;;;0.52;;
12976;SDS011;6553;48.412;9.514;2023-12-22T04:13:12;0.40;;;0.40;;
12976;SDS011;6553;48.412;9.514;2023-12-22T04:15:38;0.63;;;0.50;;
12976;SDS011;6553;48.412;9.514;2023-12-22T04:18:04;0.43;;;0.40;;
12976;SDS011;6553;48.412;9.514;2023-12-22T04:20:30;0.73;;;0.50;;
12976;SDS011;6553;48.412;9.514;2023-12-22T04:22:56;0.50;;;0.50;;
12976;SDS011;6553;48.412;9.514;2023-12-22T04:25:22;1.05;;;0.50;;
12976;SDS011;6553;48.412;9.514;2023-12-22T04:27:50;1.40;;;0.60;;
12976;SDS011;6553;48.412;9.514;2023-12-22T04:30:16;1.35;;;0.80;;
12976;SDS011;6553;48.412;9.514;2023-12-22T04:32:42;0.52;;;0.45;;
12976;SDS011;6553;48.412;9.514;2023-12-22T04:35:08;0.50;;;0.50;;
12976;SDS011;6553;48.412;9.514;2023-12-22T04:37:34;0.50;;;0.50;;
12976;SDS011;6553;48.412;9.514;2023-12-22T04:40:00;1.17;;;0.65;;
12976;SDS011;6553;48.412;9.514;2023-12-22T04:42:26;0.63;;;0.40;;
12976;SDS011;6553;48.412;9.514;2023-12-22T04:44:52;0.68;;;0.68;;
12976;SDS011;6553;48.412;9.514;2023-12-22T04:47:18;0.60;;;0.57;;
12976;SDS011;6553;48.412;9.514;2023-12-22T04:49:43;0.93;;;0.63;;
12976;SDS011;6553;48.412;9.514;2023-12-22T04:52:10;1.02;;;0.77;;
12976;SDS011;6553;48.412;9.514;2023-12-22T04:54:36;0.50;;;0.50;;
12976;SDS011;6553;48.412;9.514;2023-12-22T04:57:02;0.98;;;0.50;;
12976;SDS011;6553;48.412;9.514;2023-12-22T04:59:28;0.85;;;0.40;;
12976;SDS011;6553;48.412;9.514;2023-12-22T05:01:54;0.40;;;0.40;;
12976;SDS011;6553;48.412;9.514;2023-12-22T05:04:20;0.40;;;0.40;;
12976;SDS011;6553;48.412;9.514;2023-12-22T05:06:46;0.60;;;0.60;;
12976;SDS011;6553;48.412;9.514;2023-12-22T05:09:12;0.55;;;0.40;;
12976;SDS011;6553;48.412;9.514;2023-12-22T05:11:38;0.50;;;0.50;;
12976;SDS011;6553;48.412;9.514;2023-12-22T05:14:04;1.08;;;0.60;;
12976;SDS011;6553;48.412;9.514;2023-12-22T05:16:30;0.43;;;0.43;;
12976;SDS011;6553;48.412;9.514;2023-12-22T05:18:59;0.77;;;0.60;;
12976;SDS011;6553;48.412;9.514;2023-12-22T05:21:25;0.40;;;0.40;;
12976;SDS011;6553;48.412;9.514;2023-12-22T05:23:52;0.73;;;0.50;;
12976;SDS011;6553;48.412;9.514;2023-12-22T05:26:22;0.50;;;0.50;;
12976;SDS011;6553;48.412;9.514;2023-12-22T05:28:49;0.50;;;0.50;;
12976;SDS011;6553;48.412;9.514;2023-12-22T05:31:15;0.55;;;0.55;;
12976;SDS011;6553;48.412;9.514;2023-12-22T05:33:42;0.80;;;0.60;;
12976;SDS011;6553;48.412;9.514;2023-12-22T05:36:08;0.50;;;0.50;;
12976;SDS011;6553;48.412;9.514;2023-12-22T05:38:37;0.35;;;0.35;;
12976;SDS011;6553;48.412;9.514;2023-12-22T05:41:04;0.90;;;0.50;;
12976;SDS011;6553;48.412;9.514;2023-12-22T05:43:31;0.43;;;0.43;;
12976;SDS011;6553;48.412;9.514;2023-12-22T05:45:58;0.55;;;0.50;;
12976;SDS011;6553;48.412;9.514;2023-12-22T05:48:25;0.40;;;0.40;;
12976;SDS011;6553;48.412;9.514;2023-12-22T05:50:52;0.40;;;0.40;;
12976;SDS011;6553;48.412;9.514;2023-12-22T05:53:20;0.90;;;0.63;;
12976;SDS011;6553;48.412;9.514;2023-12-22T05:55:46;0.95;;;0.60;;
12976;SDS011;6553;48.412;9.514;2023-12-22T05:58:12;0.70;;;0.50;;
12976;SDS011;6553;48.412;9.514;2023-12-22T06:00:38;0.70;;;0.60;;
12976;SDS011;6553;48.412;9.514;2023-12-22T06:03:03;0.60;;;0.60;;
12976;SDS011;6553;48.412;9.514;2023-12-22T06:05:30;1.45;;;0.47;;
12976;SDS011;6553;48.412;9.514;2023-12-22T06:07:56;0.60;;;0.60;;
12976;SDS011;6553;48.412;9.514;2023-12-22T06:10:21;0.90;;;0.50;;
12976;SDS011;6553;48.412;9.514;2023-12-22T06:12:47;1.58;;;0.65;;
12976;SDS011;6553;48.412;9.514;2023-12-22T06:15:13;0.95;;;0.70;;
12976;SDS011;6553;48.412;9.514;2023-12-22T06:17:38;0.60;;;0.50;;
12976;SDS011;6553;48.412;9.514;2023-12-22T06:20:04;0.60;;;0.60;;
12976;SDS011;6553;48.412;9.514;2023-12-22T06:22:31;0.70;;;0.70;;
12976;SDS011;6553;48.412;9.514;2023-12-22T06:24:57;0.63;;;0.60;;
12976;SDS011;6553;48.412;9.514;2023-12-22T06:27:23;1.67;;;0.90;;
12976;SDS011;6553;48.412;9.514;2023-12-22T06:29:50;0.57;;;0.57;;
12976;SDS011;6553;48.412;9.514;2023-12-22T06:32:16;0.95;;;0.52;;
12976;SDS011;6553;48.412;9.514;2023-12-22T06:34:42;0.65;;;0.55;;
12976;SDS011;6553;48.412;9.514;2023-12-22T06:37:08;0.68;;;0.60;;
12976;SDS011;6553;48.412;9.514;2023-12-22T06:39:35;0.88;;;0.57;;
12976;SDS011;6553;48.412;9.514;2023-12-22T06:42:01;0.95;;;0.60;;
12976;SDS011;6553;48.412;9.514;2023-12-22T06:44:28;0.57;;;0.55;;
12976;SDS011;6553;48.412;9.514;2023-12-22T06:46:56;1.20;;;0.70;;
12976;SDS011;6553;48.412;9.514;2023-12-22T06:49:22;0.90;;;0.50;;
12976;SDS011;6553;48.412;9.514;2023-12-22T06:51:48;0.95;;;0.60;;
12976;SDS011;6553;48.412;9.514;2023-12-22T06:54:13;1.35;;;0.70;;
12976;SDS011;6553;48.412;9.514;2023-12-22T06:56:39;0.93;;;0.50;;
12976;SDS011;6553;48.412;9.514;2023-12-22T06:59:05;0.52;;;0.52;;
12976;SDS011;6553;48.412;9.514;2023-12-22T07:01:32;0.75;;;0.47;;
12976;SDS011;6553;48.412;9.514;2023-12-22T07:04:00;1.35;;;0.73;;
12976;SDS011;6553;48.412;9.514;2023-12-22T07:06:29;0.60;;;0.50;;
12976;SDS011;6553;48.412;9.514;2023-12-22T07:11:40;1.00;;;0.60;;
12976;SDS011;6553;48.412;9.514;2023-12-22T07:14:08;1.25;;;0.63;;
12976;SDS011;6553;48.412;9.514;2023-12-22T07:16:35;1.33;;;0.70;;
12976;SDS011;6553;48.412;9.514;2023-12-22T07:19:01;0.60;;;0.60;;
12976;SDS011;6553;48.412;9.514;2023-12-22T07:21:27;0.80;;;0.80;;
12976;SDS011;6553;48.412;9.514;2023-12-22T07:23:53;1.52;;;0.75;;
12976;SDS011;6553;48.412;9.514;2023-12-22T07:26:19;1.00;;;0.60;;
12976;SDS011;6553;48.412;9.514;2023-12-22T07:28:46;1.00;;;0.65;;
12976;SDS011;6553;48.412;9.514;2023-12-22T07:31:13;0.88;;;0.50;;
12976;SDS011;6553;48.412;9.514;2023-12-22T07:33:39;1.27;;;0.73;;
12976;SDS011;6553;48.412;9.514;2023-12-22T07:36:08;1.48;;;0.70;;
12976;SDS011;6553;48.412;9.514;2023-12-22T07:38:34;0.80;;;0.60;;
12976;SDS011;6553;48.412;9.514;2023-12-22T07:40:59;0.77;;;0.70;;
12976;SDS011;6553;48.412;9.514;2023-12-22T07:43:25;1.75;;;0.70;;
12976;SDS011;6553;48.412;9.514;2023-12-22T07:45:51;1.23;;;0.70;;
12976;SDS011;6553;48.412;9.514;2023-12-22T07:48:19;0.70;;;0.70;;
12976;SDS011;6553;48.412;9.514;2023-12-22T07:50:44;0.93;;;0.68;;
12976;SDS011;6553;48.412;9.514;2023-12-22T07:53:10;1.33;;;0.80;;
12976;SDS011;6553;48.412;9.514;2023-12-22T07:55:37;1.17;;;0.70;;
12976;SDS011;6553;48.412;9.514;2023-12-22T07:58:04;1.80;;;0.77;;
12976;SDS011;6553;48.412;9.514;2023-12-22T08:00:30;2.03;;;0.70;;
12976;SDS011;6553;48.412;9.514;2023-12-22T08:02:56;1.40;;;0.70;;
12976;SDS011;6553;48.412;9.514;2023-12-22T08:05:22;2.45;;;0.65;;
12976;SDS011;6553;48.412;9.514;2023-12-22T08:07:48;1.63;;;0.52;;
12976;SDS011;6553;48.412;9.514;2023-12-22T08:10:13;1.15;;;0.80;;
12976;SDS011;6553;48.412;9.514;2023-12-22T08:12:40;1.52;;;0.75;;
12976;SDS011;6553;48.412;9.514;2023-12-22T08:15:06;1.45;;;0.80;;
12976;SDS011;6553;48.412;9.514;2023-12-22T08:17:35;1.63;;;0.82;;
12976;SDS011;6553;48.412;9.514;2023-12-22T08:20:03;1.20;;;0.60;;
12976;SDS011;6553;48.412;9.514;2023-12-22T08:22:29;1.45;;;0.68;;
12976;SDS011;6553;48.412;9.514;2023-12-22T08:24:55;1.58;;;0.90;;
12976;SDS011;6553;48.412;9.514;2023-12-22T08:27:20;1.20;;;1.00;;
12976;SDS011;6553;48.412;9.514;2023-12-22T08:29:46;0.63;;;0.60;;
12976;SDS011;6553;48.412;9.514;2023-12-22T08:32:12;1.17;;;0.75;;
12976;SDS011;6553;48.412;9.514;2023-12-22T08:34:38;1.98;;;0.80;;
12976;SDS011;6553;48.412;9.514;2023-12-22T08:37:03;1.58;;;0.80;;
12976;SDS011;6553;48.412;9.514;2023-12-22T08:39:29;1.98;;;0.82;;
12976;SDS011;6553;48.412;9.514;2023-12-22T08:41:55;2.05;;;1.08;;
12976;SDS011;6553;48.412;9.514;2023-12-22T08:44:20;1.42;;;0.90;;
12976;SDS011;6553;48.412;9.514;2023-12-22T08:46:46;0.73;;;0.50;;
12976;SDS011;6553;48.412;9.514;2023-12-22T08:49:12;1.42;;;0.80;;
12976;SDS011;6553;48.412;9.514;2023-12-22T08:51:37;1.13;;;0.77;;
12976;SDS011;6553;48.412;9.514;2023-12-22T08:54:04;1.60;;;0.90;;
12976;SDS011;6553;48.412;9.514;2023-12-22T08:56:30;2.35;;;0.90;;
12976;SDS011;6553;48.412;9.514;2023-12-22T08:58:55;2.20;;;1.20;;
12976;SDS011;6553;48.412;9.514;2023-12-22T09:01:23;2.45;;;1.10;;
12976;SDS011;6553;48.412;9.514;2023-12-22T09:03:50;0.80;;;0.73;;
12976;SDS011;6553;48.412;9.514;2023-12-22T09:06:16;1.25;;;0.82;;
12976;SDS011;6553;48.412;9.514;2023-12-22T09:08:44;1.58;;;0.80;;
12976;SDS011;6553;48.412;9.514;2023-12-22T09:11:11;1.42;;;0.65;;
12976;SDS011;6553;48.412;9.514;2023-12-22T09:13:39;1.88;;;0.77;;
12976;SDS011;6553;48.412;9.514;2023-12-22T09:16:06;4.15;;;0.90;;
12976;SDS011;6553;48.412;9.514;2023-12-22T09:18:34;1.75;;;0.98;;
12976;SDS011;6553;48.412;9.514;2023-12-22T09:21:01;3.45;;;0.80;;
12976;SDS011;6553;48.412;9.514;2023-12-22T09:23:27;1.85;;;0.98;;
12976;SDS011;6553;48.412;9.514;2023-12-22T09:25:54;2.05;;;0.90;;
12976;SDS011;6553;48.412;9.514;2023-12-22T09:28:20;1.23;;;0.68;;
12976;SDS011;6553;48.412;9.514;2023-12-22T09:30:46;0.60;;;0.60;;
12976;SDS011;6553;48.412;9.514;2023-12-22T09:33:11;2.22;;;0.77;;
12976;SDS011;6553;48.412;9.514;2023-12-22T09:35:38;2.60;;;0.90;;
12976;SDS011;6553;48.412;9.514;2023-12-22T09:38:07;1.55;;;1.00;;
12976;SDS011;6553;48.412;9.514;2023-12-22T09:40:35;1.85;;;0.80;;
12976;SDS011;6553;48.412;9.514;2023-12-22T09:43:04;2.47;;;0.75;;
12976;SDS011;6553;48.412;9.514;2023-12-22T09:45:33;3.25;;;0.75;;
12976;SDS011;6553;48.412;9.514;2023-12-22T09:48:00;1.95;;;1.05;;
12976;SDS011;6553;48.412;9.514;2023-12-22T09:50:27;1.88;;;0.60;;
12976;SDS011;6553;48.412;9.514;2023-12-22T09:52:53;1.92;;;1.00;;
12976;SDS011;6553;48.412;9.514;2023-12-22T09:55:22;3.08;;;1.05;;
12976;SDS011;6553;48.412;9.514;2023-12-22T09:57:51;1.23;;;0.70;;
12976;SDS011;6553;48.412;9.514;2023-12-22T10:00:19;1.15;;;0.93;;
12976;SDS011;6553;48.412;9.514;2023-12-22T10:02:47;3.03;;;0.90;;
12976;SDS011;6553;48.412;9.514;2023-12-22T10:05:13;1.73;;;0.82;;
12976;SDS011;6553;48.412;9.514;2023-12-22T10:07:40;0.73;;;0.50;;
12976;SDS011;6553;48.412;9.514;2023-12-22T10:10:09;1.58;;;1.15;;
12976;SDS011;6553;48.412;9.514;2023-12-22T10:12:38;1.30;;;0.70;;
12976;SDS011;6553;48.412;9.514;2023-12-22T10:15:05;1.90;;;0.98;;
12976;SDS011;6553;48.412;9.514;2023-12-22T10:17:33;1.67;;;0.93;;
12976;SDS011;6553;48.412;9.514;2023-12-22T10:20:01;3.38;;;1.33;;
12976;SDS011;6553;48.412;9.514;2023-12-22T10:22:28;1.33;;;0.98;;
12976;SDS011;6553;48.412;9.514;2023-12-22T10:24:54;1.17;;;0.70;;
12976;SDS011;6553;48.412;9.514;2023-12-22T10:27:19;2.25;;;1.10;;
12976;SDS011;6553;48.412;9.514;2023-12-22T10:29:49;3.08;;;1.00;;
12976;SDS011;6553;48.412;9.514;2023-12-22T10:32:19;2.30;;;1.00;;
12976;SDS011;6553;48.412;9.514;2023-12-22T10:34:46;1.70;;;0.80;;
12976;SDS011;6553;48.412;9.514;2023-12-22T10:37:13;3.28;;;1.10;;
12976;SDS011;6553;48.412;9.514;2023-12-22T10:39:39;1.40;;;0.80;;
12976;SDS011;6553;48.412;9.514;2023-12-22T10:42:06;2.00;;;0.98;;
12976;SDS011;6553;48.412;9.514;2023-12-22T10:44:32;1.45;;;1.05;;
12976;SDS011;6553;48.412;9.514;2023-12-22T10:46:58;2.25;;;1.00;;
12976;SDS011;6553;48.412;9.514;2023-12-22T10:49:25;3.80;;;1.17;;
12976;SDS011;6553;48.412;9.514;2023-12-22T10:51:51;3.00;;;1.17;;
12976;SDS011;6553;48.412;9.514;2023-12-22T10:54:18;3.47;;;1.35;;
12976;SDS011;6553;48.412;9.514;2023-12-22T10:56:45;1.63;;;0.93;;
12976;SDS011;6553;48.412;9.514;2023-12-22T10:59:10;3.20;;;1.17;;
12976;SDS011;6553;48.412;9.514;2023-12-22T11:01:37;2.20;;;1.30;;
12976;SDS011;6553;48.412;9.514;2023-12-22T11:04:07;2.47;;;1.52;;
12976;SDS011;6553;48.412;9.514;2023-12-22T11:06:38;1.67;;;1.20;;
12976;SDS011;6553;48.412;9.514;2023-12-22T11:09:08;3.30;;;1.35;;
12976;SDS011;6553;48.412;9.514;2023-12-22T11:11:38;6.97;;;1.90;;
12976;SDS011;6553;48.412;9.514;2023-12-22T11:14:06;6.47;;;2.30;;
12976;SDS011;6553;48.412;9.514;2023-12-22T11:16:33;8.43;;;2.83;;
12976;SDS011;6553;48.412;9.514;2023-12-22T11:19:02;9.15;;;3.60;;
12976;SDS011;6553;48.412;9.514;2023-12-22T11:21:29;10.63;;;3.95;;
12976;SDS011;6553;48.412;9.514;2023-12-22T11:23:56;6.90;;;3.28;;
12976;SDS011;6553;48.412;9.514;2023-12-22T11:26:23;6.53;;;3.17;;
12976;SDS011;6553;48.412;9.514;2023-12-22T11:28:50;7.78;;;3.50;;
12976;SDS011;6553;48.412;9.514;2023-12-22T11:31:18;9.77;;;3.97;;
12976;SDS011;6553;48.412;9.514;2023-12-22T11:33:46;10.07;;;3.40;;
12976;SDS011;6553;48.412;9.514;2023-12-22T11:36:15;8.57;;;3.60;;
12976;SDS011;6553;48.412;9.514;2023-12-22T11:38:46;10.60;;;3.85;;
12976;SDS011;6553;48.412;9.514;2023-12-22T11:41:14;9.52;;;3.20;;
12976;SDS011;6553;48.412;9.514;2023-12-22T11:43:46;9.57;;;3.42;;
12976;SDS011;6553;48.412;9.514;2023-12-22T11:46:16;7.30;;;3.40;;
12976;SDS011;6553;48.412;9.514;2023-12-22T11:48:48;6.53;;;3.28;;
12976;SDS011;6553;48.412;9.514;2023-12-22T11:51:18;10.57;;;4.00;;
12976;SDS011;6553;48.412;9.514;2023-12-22T11:53:44;8.48;;;4.05;;
12976;SDS011;6553;48.412;9.514;2023-12-22T11:56:11;7.45;;;3.60;;
12976;SDS011;6553;48.412;9.514;2023-12-22T11:58:47;11.73;;;3.58;;
12976;SDS011;6553;48.412;9.514;2023-12-22T12:01:18;6.07;;;3.53;;
12976;SDS011;6553;48.412;9.514;2023-12-22T12:08:54;8.88;;;4.00;;
12976;SDS011;6553;48.412;9.514;2023-12-22T12:14:37;7.15;;;3.40;;
12976;SDS011;6553;48.412;9.514;2023-12-22T12:17:08;8.52;;;3.78;;
12976;SDS011;6553;48.412;9.514;2023-12-22T12:19:37;6.68;;;3.40;;
12976;SDS011;6553;48.412;9.514;2023-12-22T12:22:04;5.38;;;3.63;;
12976;SDS011;6553;48.412;9.514;2023-12-22T12:24:30;9.00;;;3.70;;
12976;SDS011;6553;48.412;9.514;2023-12-22T12:26:56;7.00;;;3.25;;
12976;SDS011;6553;48.412;9.514;2023-12-22T12:29:22;8.23;;;3.20;;
12976;SDS011;6553;48.412;9.514;2023-12-22T12:31:48;7.13;;;3.63;;
12976;SDS011;6553;48.412;9.514;2023-12-22T12:34:14;9.00;;;2.90;;
12976;SDS011;6553;48.412;9.514;2023-12-22T12:36:42;9.32;;;3.40;;
12976;SDS011;6553;48.412;9.514;2023-12-22T12:39:09;8.20;;;3.90;;
12976;SDS011;6553;48.412;9.514;2023-12-22T12:41:41;6.10;;;3.28;;
12976;SDS011;6553;48.412;9.514;2023-12-22T12:44:11;7.05;;;3.35;;
12976;SDS011;6553;48.412;9.514;2023-12-22T12:46:38;6.78;;;3.30;;
12976;SDS011;6553;48.412;9.514;2023-12-22T12:49:07;6.38;;;2.75;;
12976;SDS011;6553;48.412;9.514;2023-12-22T12:51:40;7.32;;;3.10;;
12976;SDS011;6553;48.412;9.514;2023-12-22T12:54:11;6.20;;;3.22;;
12976;SDS011;6553;48.412;9.514;2023-12-22T12:56:42;7.72;;;3.28;;
12976;SDS011;6553;48.412;9.514;2023-12-22T12:59:10;5.68;;;2.63;;
12976;SDS011;6553;48.412;9.514;2023-12-22T13:01:46;5.70;;;3.13;;
12976;SDS011;6553;48.412;9.514;2023-12-22T13:04:14;6.80;;;2.97;;
12976;SDS011;6553;48.412;9.514;2023-12-22T13:06:43;6.07;;;3.25;;
12976;SDS011;6553;48.412;9.514;2023-12-22T13:09:17;6.50;;;3.33;;
12976;SDS011;6553;48.412;9.514;2023-12-22T13:11:45;6.25;;;3.38;;
12976;SDS011;6553;48.412;9.514;2023-12-22T13:14:12;5.00;;;2.92;;
12976;SDS011;6553;48.412;9.514;2023-12-22T13:16:48;4.95;;;2.70;;
12976;SDS011;6553;48.412;9.514;2023-12-22T13:19:14;6.30;;;2.92;;
12976;SDS011;6553;48.412;9.514;2023-12-22T13:21:40;7.88;;;3.03;;
12976;SDS011;6553;48.412;9.514;2023-12-22T13:26:38;4.85;;;2.55;;
12976;SDS011;6553;48.412;9.514;2023-12-22T13:29:08;6.22;;;2.88;;
12976;SDS011;6553;48.412;9.514;2023-12-22T13:31:36;5.85;;;3.17;;
12976;SDS011;6553;48.412;9.514;2023-12-22T13:34:10;8.32;;;2.90;;
12976;SDS011;6553;48.412;9.514;2023-12-22T13:36:38;4.93;;;2.75;;
12976;SDS011;6553;48.412;9.514;2023-12-22T13:39:05;5.15;;;2.88;;
12976;SDS011;6553;48.412;9.514;2023-12-22T13:41:33;6.85;;;3.00;;
12976;SDS011;6553;48.412;9.514;2023-12-22T13:44:07;5.15;;;2.70;;
12976;SDS011;6553;48.412;9.514;2023-12-22T13:46:33;4.40;;;2.67;;
12976;SDS011;6553;48.412;9.514;2023-12-22T13:49:02;4.47;;;2.70;;
12976;SDS011;6553;48.412;9.514;2023-12-22T13:51:38;4.93;;;2.67;;
12976;SDS011;6553;48.412;9.514;2023-12-22T13:54:12;4.57;;;2.67;;
12976;SDS011;6553;48.412;9.514;2023-12-22T13:56:39;5.50;;;2.83;;
12976;SDS011;6553;48.412;9.514;2023-12-22T13:59:09;4.95;;;2.55;;
12976;SDS011;6553;48.412;9.514;2023-12-22T14:01:36;6.15;;;2.60;;
12976;SDS011;6553;48.412;9.514;2023-12-22T14:04:02;5.03;;;2.80;;
12976;SDS011;6553;48.412;9.514;2023-12-22T14:06:28;5.95;;;2.85;;
12976;SDS011;6553;48.412;9.514;2023-12-22T14:08:54;4.38;;;2.35;;
12976;SDS011;6553;48.412;9.514;2023-12-22T14:11:21;6.93;;;2.80;;
12976;SDS011;6553;48.412;9.514;2023-12-22T14:13:47;3.70;;;2.70;;
12976;SDS011;6553;48.412;9.514;2023-12-22T14:16:12;5.90;;;2.40;;
12976;SDS011;6553;48.412;9.514;2023-12-22T14:18:40;3.65;;;2.38;;
12976;SDS011;6553;48.412;9.514;2023-12-22T14:21:07;5.20;;;2.40;;
12976;SDS011;6553;48.412;9.514;2023-12-22T14:23:32;5.63;;;2.50;;
12976;SDS011;6553;48.412;9.514;2023-12-22T14:25:58;3.10;;;2.30;;
12976;SDS011;6553;48.412;9.514;2023-12-22T14:28:24;4.95;;;2.83;;
12976;SDS011;6553;48.412;9.514;2023-12-22T14:30:49;4.35;;;2.03;;
12976;SDS011;6553;48.412;9.514;2023-12-22T14:33:16;4.40;;;2.38;;
12976;SDS011;6553;48.412;9.514;2023-12-22T14:35:41;3.33;;;2.47;;
12976;SDS011;6553;48.412;9.514;2023-12-22T14:38:07;5.13;;;2.40;;
12976;SDS011;6553;48.412;9.514;2023-12-22T14:40:33;4.75;;;2.15;;
12976;SDS011;6553;48.412;9.514;2023-12-22T14:42:59;4.50;;;2.35;;
12976;SDS011;6553;48.412;9.514;2023-12-22T14:45:26;4.15;;;2.33;;
12976;SDS011;6553;48.412;9.514;2023-12-22T14:47:52;5.63;;;2.67;;
12976;SDS011;6553;48.412;9.514;2023-12-22T14:50:18;4.75;;;2.50;;
12976;SDS011;6553;48.412;9.514;2023-12-22T14:52:44;2.67;;;1.92;;
12976;SDS011;6553;48.412;9.514;2023-12-22T14:55:10;3.22;;;2.20;;
12976;SDS011;6553;48.412;9.514;2023-12-22T14:57:36;5.80;;;2.55;;
12976;SDS011;6553;48.412;9.514;2023-12-22T15:00:03;3.65;;;2.40;;
12976;SDS011;6553;48.412;9.514;2023-12-22T15:02:30;4.88;;;2.33;;
12976;SDS011;6553;48.412;9.514;2023-12-22T15:04:56;7.20;;;2.63;;
12976;SDS011;6553;48.412;9.514;2023-12-22T15:07:22;4.57;;;2.25;;
12976;SDS011;6553;48.412;9.514;2023-12-22T15:09:48;3.88;;;2.20;;
12976;SDS011;6553;48.412;9.514;2023-12-22T15:12:16;4.20;;;2.20;;
12976;SDS011;6553;48.412;9.514;2023-12-22T15:14:43;4.72;;;2.08;;